createdAt,value
2018-08-24T00:00:30.577Z,27.70
2018-08-24T00:01:08.501Z,27.70
2018-08-24T00:01:46.455Z,27.60
2018-08-24T00:02:24.476Z,27.60
2018-08-24T00:03:02.446Z,27.60
2018-08-24T00:03:40.430Z,27.60
2018-08-24T00:04:18.405Z,27.60
2018-08-24T00:04:56.943Z,27.60
2018-08-24T00:05:34.972Z,27.60
2018-08-24T00:06:13.038Z,27.60
2018-08-24T00:06:50.908Z,27.60
2018-08-24T00:07:28.937Z,27.60
2018-08-24T00:08:06.985Z,27.60
2018-08-24T00:08:45.304Z,27.60
2018-08-24T00:09:28.266Z,27.60
2018-08-24T00:10:06.231Z,27.60
2018-08-24T00:10:44.062Z,27.60
2018-08-24T00:11:22.052Z,27.60
2018-08-24T00:12:00.030Z,27.60
2018-08-24T00:12:38.026Z,27.70
2018-08-24T00:13:16.190Z,27.70
2018-08-24T00:13:54.236Z,27.70
2018-08-24T00:14:32.084Z,27.70
2018-08-24T00:15:10.176Z,27.70
2018-08-24T00:15:48.191Z,27.70
2018-08-24T00:16:30.334Z,27.60
2018-08-24T00:17:11.884Z,27.60
2018-08-24T00:17:50.533Z,27.60
2018-08-24T00:18:28.499Z,27.60
2018-08-24T00:19:06.350Z,27.60
2018-08-24T00:19:44.330Z,27.60
2018-08-24T00:20:23.266Z,27.60
2018-08-24T00:21:01.193Z,27.60
2018-08-24T00:21:39.748Z,27.60
2018-08-24T00:22:18.142Z,27.60
2018-08-24T00:22:56.825Z,27.60
2018-08-24T00:23:34.703Z,27.60
2018-08-24T00:24:13.327Z,27.60
2018-08-24T00:24:51.226Z,27.60
2018-08-24T00:25:29.085Z,27.60
2018-08-24T00:26:08.755Z,27.60
2018-08-24T00:26:46.684Z,27.60
2018-08-24T00:27:24.673Z,27.60
2018-08-24T00:28:02.525Z,27.60
2018-08-24T00:28:40.498Z,27.60
2018-08-24T00:29:18.408Z,27.60
2018-08-24T00:29:56.414Z,27.60
2018-08-24T00:30:34.840Z,27.60
2018-08-24T00:31:12.782Z,27.60
2018-08-24T00:31:50.920Z,27.60
2018-08-24T00:32:29.011Z,27.60
2018-08-24T00:33:06.980Z,27.60
2018-08-24T00:33:48.589Z,27.60
2018-08-24T00:34:26.673Z,27.60
2018-08-24T00:35:05.191Z,27.60
2018-08-24T00:35:43.128Z,27.60
2018-08-24T00:36:21.963Z,27.60
2018-08-24T00:37:00.061Z,27.60
2018-08-24T00:37:37.925Z,27.60
2018-08-24T00:38:16.564Z,27.60
2018-08-24T00:38:54.950Z,27.60
2018-08-24T00:39:33.592Z,27.60
2018-08-24T00:40:12.449Z,27.60
2018-08-24T00:40:55.030Z,27.60
2018-08-24T00:41:33.188Z,27.60
2018-08-24T00:42:11.409Z,27.60
2018-08-24T00:42:49.750Z,27.60
2018-08-24T00:43:29.714Z,27.60
2018-08-24T00:44:08.098Z,27.50
2018-08-24T00:44:46.334Z,27.50
2018-08-24T00:45:24.761Z,27.50
2018-08-24T00:46:03.281Z,27.60
2018-08-24T00:46:41.847Z,27.50
2018-08-24T00:47:20.386Z,27.50
2018-08-24T00:47:59.378Z,27.50
2018-08-24T00:48:37.937Z,27.50
2018-08-24T00:49:16.451Z,27.50
2018-08-24T00:49:54.865Z,27.50
2018-08-24T00:50:33.571Z,27.50
2018-08-24T00:51:12.314Z,27.60
2018-08-24T00:51:51.318Z,27.60
2018-08-24T00:52:30.675Z,27.60
2018-08-24T00:53:09.294Z,27.50
2018-08-24T00:53:47.884Z,27.60
2018-08-24T00:54:26.476Z,27.50
2018-08-24T00:55:05.020Z,27.50
2018-08-24T00:55:43.612Z,27.50
2018-08-24T00:56:23.451Z,27.60
2018-08-24T00:57:02.219Z,27.60
2018-08-24T00:57:40.889Z,27.60
2018-08-24T00:58:19.385Z,27.60
2018-08-24T00:58:58.043Z,27.60
2018-08-24T00:59:36.570Z,27.60
2018-08-24T01:00:15.162Z,27.60
2018-08-24T01:00:57.577Z,27.60
2018-08-24T01:01:36.212Z,27.60
2018-08-24T01:02:14.668Z,27.60
2018-08-24T01:02:53.298Z,27.60
2018-08-24T01:03:31.943Z,27.60
2018-08-24T01:04:10.350Z,27.60
2018-08-24T01:04:51.122Z,27.60
2018-08-24T01:05:30.133Z,27.60
2018-08-24T01:06:08.460Z,27.60
2018-08-24T01:06:46.558Z,27.60
2018-08-24T01:07:24.599Z,27.60
2018-08-24T01:08:06.707Z,27.60
2018-08-24T01:08:46.433Z,27.60
2018-08-24T01:09:24.856Z,27.60
2018-08-24T01:10:06.513Z,27.60
2018-08-24T01:10:44.561Z,27.60
2018-08-24T01:11:26.353Z,27.60
2018-08-24T01:12:08.466Z,27.60
2018-08-24T01:12:46.431Z,27.60
2018-08-24T01:13:24.410Z,27.60
2018-08-24T01:14:02.946Z,27.70
2018-08-24T01:14:41.817Z,27.70
2018-08-24T01:15:19.840Z,27.70
2018-08-24T01:16:00.635Z,27.70
2018-08-24T01:16:42.517Z,27.70
2018-08-24T01:17:24.771Z,27.80
2018-08-24T01:18:07.064Z,27.80
2018-08-24T01:18:50.331Z,27.70
2018-08-24T01:19:28.189Z,27.80
2018-08-24T01:20:06.069Z,27.80
2018-08-24T01:20:47.490Z,27.80
2018-08-24T01:21:25.479Z,27.80
2018-08-24T01:22:03.360Z,27.80
2018-08-24T01:22:41.822Z,27.80
2018-08-24T01:23:19.945Z,27.80
2018-08-24T01:23:57.878Z,27.80
2018-08-24T01:24:35.777Z,27.80
2018-08-24T01:25:13.771Z,27.80
2018-08-24T01:25:51.833Z,27.80
2018-08-24T01:26:29.773Z,27.80
2018-08-24T01:27:09.248Z,27.80
2018-08-24T01:27:47.188Z,27.80
2018-08-24T01:28:25.192Z,27.80
2018-08-24T01:29:03.247Z,27.80
2018-08-24T01:29:42.368Z,27.80
2018-08-24T01:30:20.276Z,27.80
2018-08-24T01:31:04.437Z,27.80
2018-08-24T01:31:42.484Z,27.80
2018-08-24T01:32:20.421Z,27.80
2018-08-24T01:32:58.316Z,27.80
2018-08-24T01:33:36.651Z,27.80
2018-08-24T01:34:14.541Z,27.80
2018-08-24T01:34:52.425Z,27.80
2018-08-24T01:35:30.676Z,27.80
2018-08-24T01:36:10.227Z,27.80
2018-08-24T01:36:48.220Z,27.80
2018-08-24T01:37:26.005Z,27.80
2018-08-24T01:38:04.019Z,27.80
2018-08-24T01:38:41.971Z,27.80
2018-08-24T01:39:19.956Z,27.80
2018-08-24T01:39:58.923Z,27.80
2018-08-24T01:40:36.798Z,27.80
2018-08-24T01:41:14.751Z,27.80
2018-08-24T01:41:52.723Z,27.80
2018-08-24T01:42:30.676Z,27.80
2018-08-24T01:43:09.108Z,27.80
2018-08-24T01:43:46.901Z,27.80
2018-08-24T01:44:24.762Z,27.80
2018-08-24T01:45:02.762Z,27.80
2018-08-24T01:45:40.920Z,27.80
2018-08-24T01:46:18.885Z,27.80
2018-08-24T01:46:56.735Z,27.80
2018-08-24T01:47:35.663Z,27.80
2018-08-24T01:48:14.040Z,27.90
2018-08-24T01:48:52.858Z,27.80
2018-08-24T01:49:30.759Z,27.80
2018-08-24T01:50:08.620Z,27.80
2018-08-24T01:50:46.517Z,27.90
2018-08-24T01:51:24.542Z,27.90
2018-08-24T01:52:02.435Z,27.90
2018-08-24T01:52:40.967Z,27.90
2018-08-24T01:53:18.779Z,27.90
2018-08-24T01:53:56.581Z,27.90
2018-08-24T01:54:34.558Z,27.90
2018-08-24T01:55:12.488Z,27.90
2018-08-24T01:55:50.393Z,27.90
2018-08-24T01:56:28.413Z,27.90
2018-08-24T01:57:06.328Z,27.90
2018-08-24T01:57:44.367Z,27.90
2018-08-24T01:58:22.264Z,27.90
2018-08-24T01:59:00.286Z,27.90
2018-08-24T01:59:38.462Z,27.90
2018-08-24T02:00:17.285Z,27.90
2018-08-24T02:00:55.192Z,27.90
2018-08-24T02:01:34.362Z,27.90
2018-08-24T02:02:12.543Z,27.90
2018-08-24T02:02:50.589Z,27.90
2018-08-24T02:03:28.593Z,27.90
2018-08-24T02:04:06.421Z,27.90
2018-08-24T02:04:44.700Z,27.90
2018-08-24T02:05:22.693Z,27.90
2018-08-24T02:06:04.867Z,27.90
2018-08-24T02:06:42.856Z,27.90
2018-08-24T02:07:20.931Z,27.90
2018-08-24T02:07:58.956Z,27.90
2018-08-24T02:08:37.913Z,27.90
2018-08-24T02:09:15.964Z,27.90
2018-08-24T02:09:54.159Z,27.90
2018-08-24T02:10:32.131Z,27.90
2018-08-24T02:11:14.267Z,27.90
2018-08-24T02:11:52.210Z,27.90
2018-08-24T02:12:34.200Z,27.90
2018-08-24T02:13:16.172Z,27.90
2018-08-24T02:13:58.214Z,27.90
2018-08-24T02:14:42.434Z,27.90
2018-08-24T02:15:20.411Z,27.90
2018-08-24T02:15:58.347Z,27.90
2018-08-24T02:16:37.848Z,27.90
2018-08-24T02:17:20.008Z,27.90
2018-08-24T02:18:01.950Z,27.90
2018-08-24T02:18:44.318Z,28.00
2018-08-24T02:19:25.880Z,27.90
2018-08-24T02:20:07.977Z,27.90
2018-08-24T02:20:50.119Z,27.90
2018-08-24T02:21:32.092Z,27.90
2018-08-24T02:22:14.188Z,27.90
2018-08-24T02:22:57.835Z,27.80
2018-08-24T02:23:35.711Z,27.80
2018-08-24T02:24:14.431Z,27.80
2018-08-24T02:24:52.414Z,27.80
2018-08-24T02:25:30.399Z,27.70
2018-08-24T02:26:08.403Z,27.70
2018-08-24T02:26:47.261Z,27.60
2018-08-24T02:27:25.288Z,27.60
2018-08-24T02:28:03.168Z,27.60
2018-08-24T02:28:41.126Z,27.60
2018-08-24T02:29:19.006Z,27.50
2018-08-24T02:29:59.005Z,27.50
2018-08-24T02:30:36.974Z,27.40
2018-08-24T02:31:15.090Z,27.40
2018-08-24T02:31:53.496Z,27.40
2018-08-24T02:32:31.478Z,27.40
2018-08-24T02:33:09.473Z,27.40
2018-08-24T02:33:47.393Z,27.40
2018-08-24T02:34:25.412Z,27.40
2018-08-24T02:35:03.396Z,27.40
2018-08-24T02:35:41.358Z,27.40
2018-08-24T02:36:19.338Z,27.50
2018-08-24T02:36:57.395Z,27.50
2018-08-24T02:37:35.317Z,27.50
2018-08-24T02:38:13.934Z,27.50
2018-08-24T02:38:52.635Z,27.50
2018-08-24T02:39:30.514Z,27.50
2018-08-24T02:40:08.694Z,27.50
2018-08-24T02:40:46.566Z,27.40
2018-08-24T02:41:24.495Z,27.50
2018-08-24T02:42:02.433Z,27.40
2018-08-24T02:42:40.492Z,27.40
2018-08-24T02:43:18.542Z,27.30
2018-08-24T02:43:56.601Z,27.30
2018-08-24T02:44:34.460Z,27.30
2018-08-24T02:45:12.576Z,27.30
2018-08-24T02:45:50.609Z,27.30
2018-08-24T02:46:28.532Z,27.20
2018-08-24T02:47:06.521Z,27.20
2018-08-24T02:47:44.420Z,27.20
2018-08-24T02:48:22.304Z,27.20
2018-08-24T02:49:00.350Z,27.20
2018-08-24T02:49:38.314Z,27.20
2018-08-24T02:50:16.759Z,27.20
2018-08-24T02:50:54.823Z,27.20
2018-08-24T02:51:32.733Z,27.30
2018-08-24T02:52:11.248Z,27.30
2018-08-24T02:52:49.248Z,27.30
2018-08-24T02:53:27.435Z,27.30
2018-08-24T02:54:05.552Z,27.30
2018-08-24T02:54:43.576Z,27.30
2018-08-24T02:55:21.676Z,27.30
2018-08-24T02:55:59.556Z,27.40
2018-08-24T02:56:37.454Z,27.40
2018-08-24T02:57:15.268Z,27.40
2018-08-24T02:57:53.259Z,27.40
2018-08-24T02:58:31.208Z,27.50
2018-08-24T02:59:09.220Z,27.50
2018-08-24T02:59:47.340Z,27.50
2018-08-24T03:00:25.311Z,27.50
2018-08-24T03:01:03.216Z,27.50
2018-08-24T03:01:41.224Z,27.50
2018-08-24T03:02:20.356Z,27.60
2018-08-24T03:02:59.217Z,27.60
2018-08-24T03:03:37.251Z,27.60
2018-08-24T03:04:16.129Z,27.60
2018-08-24T03:04:54.098Z,27.60
2018-08-24T03:05:32.265Z,27.60
2018-08-24T03:06:10.115Z,27.60
2018-08-24T03:06:48.054Z,27.60
2018-08-24T03:07:26.311Z,27.60
2018-08-24T03:08:04.146Z,27.60
2018-08-24T03:08:42.062Z,27.60
2018-08-24T03:09:20.034Z,27.60
2018-08-24T03:09:58.047Z,27.70
2018-08-24T03:10:36.028Z,27.70
2018-08-24T03:11:14.119Z,27.70
2018-08-24T03:11:52.008Z,27.70
2018-08-24T03:12:29.890Z,27.70
2018-08-24T03:13:07.910Z,27.70
2018-08-24T03:13:45.790Z,27.70
2018-08-24T03:14:23.742Z,27.70
2018-08-24T03:15:01.679Z,27.70
2018-08-24T03:15:40.821Z,27.70
2018-08-24T03:16:18.902Z,27.70
2018-08-24T03:17:00.901Z,27.70
2018-08-24T03:17:43.521Z,27.70
2018-08-24T03:18:21.337Z,27.80
2018-08-24T03:18:59.164Z,27.80
2018-08-24T03:19:37.126Z,27.80
2018-08-24T03:20:16.002Z,27.80
2018-08-24T03:20:53.889Z,27.80
2018-08-24T03:21:31.826Z,27.80
2018-08-24T03:22:09.681Z,27.80
2018-08-24T03:22:47.839Z,27.80
2018-08-24T03:23:25.850Z,27.80
2018-08-24T03:24:04.030Z,27.80
2018-08-24T03:24:41.974Z,27.80
2018-08-24T03:25:19.845Z,27.80
2018-08-24T03:25:57.835Z,27.80
2018-08-24T03:26:35.837Z,27.80
2018-08-24T03:27:13.689Z,27.80
2018-08-24T03:27:51.764Z,27.80
2018-08-24T03:28:29.715Z,27.80
2018-08-24T03:29:07.681Z,27.90
2018-08-24T03:29:45.577Z,27.90
2018-08-24T03:30:23.533Z,27.90
2018-08-24T03:31:01.459Z,27.90
2018-08-24T03:31:39.379Z,27.90
2018-08-24T03:32:17.329Z,27.90
2018-08-24T03:32:55.494Z,27.90
2018-08-24T03:33:33.543Z,27.90
2018-08-24T03:34:11.449Z,27.90
2018-08-24T03:34:49.457Z,27.90
2018-08-24T03:35:27.368Z,27.90
2018-08-24T03:36:05.334Z,27.90
2018-08-24T03:36:43.568Z,27.90
2018-08-24T03:37:23.085Z,27.90
2018-08-24T03:38:01.112Z,27.90
2018-08-24T03:38:39.008Z,27.90
2018-08-24T03:39:16.903Z,28.00
2018-08-24T03:39:54.785Z,28.00
2018-08-24T03:40:32.911Z,27.90
2018-08-24T03:41:10.786Z,28.00
2018-08-24T03:41:48.934Z,28.00
2018-08-24T03:42:26.938Z,28.00
2018-08-24T03:43:05.562Z,28.00
2018-08-24T03:43:43.979Z,28.00
2018-08-24T03:44:21.861Z,28.00
2018-08-24T03:44:59.703Z,28.00
2018-08-24T03:45:38.252Z,28.00
2018-08-24T03:46:16.509Z,28.10
2018-08-24T03:46:54.564Z,28.00
2018-08-24T03:47:32.496Z,28.10
2018-08-24T03:48:10.304Z,28.00
2018-08-24T03:48:48.254Z,28.10
2018-08-24T03:49:26.213Z,28.10
2018-08-24T03:50:04.433Z,28.10
2018-08-24T03:50:43.403Z,28.00
2018-08-24T03:51:21.268Z,28.10
2018-08-24T03:51:59.136Z,28.10
2018-08-24T03:52:36.952Z,28.10
2018-08-24T03:53:14.927Z,28.10
2018-08-24T03:53:52.947Z,28.10
2018-08-24T03:54:31.181Z,28.10
2018-08-24T03:55:09.102Z,28.10
2018-08-24T03:55:48.438Z,28.20
2018-08-24T03:56:26.491Z,28.20
2018-08-24T03:57:04.431Z,28.20
2018-08-24T03:57:43.232Z,28.20
2018-08-24T03:58:21.195Z,28.20
2018-08-24T03:58:59.306Z,28.20
2018-08-24T03:59:37.339Z,28.20
2018-08-24T04:00:18.431Z,28.20
2018-08-24T04:00:59.658Z,28.20
2018-08-24T04:01:38.800Z,28.20
2018-08-24T04:02:16.728Z,28.20
2018-08-24T04:02:54.902Z,28.20
2018-08-24T04:03:33.653Z,28.20
2018-08-24T04:04:11.516Z,28.30
2018-08-24T04:04:49.500Z,28.30
2018-08-24T04:05:27.449Z,28.20
2018-08-24T04:06:06.316Z,28.20
2018-08-24T04:06:44.244Z,28.30
2018-08-24T04:07:22.671Z,28.30
2018-08-24T04:08:01.158Z,28.30
2018-08-24T04:08:39.040Z,28.30
2018-08-24T04:09:17.110Z,28.30
2018-08-24T04:09:55.105Z,28.30
2018-08-24T04:10:33.020Z,28.30
2018-08-24T04:11:11.012Z,28.30
2018-08-24T04:11:49.529Z,28.30
2018-08-24T04:12:27.386Z,28.30
2018-08-24T04:13:05.506Z,28.30
2018-08-24T04:13:43.428Z,28.30
2018-08-24T04:14:21.398Z,28.30
2018-08-24T04:14:59.353Z,28.30
2018-08-24T04:15:43.581Z,28.30
2018-08-24T04:16:21.763Z,28.40
2018-08-24T04:18:02.171Z,28.40
2018-08-24T04:18:40.165Z,28.40
2018-08-24T04:19:26.004Z,28.40
2018-08-24T04:20:04.017Z,28.40
2018-08-24T04:20:43.419Z,28.40
2018-08-24T04:21:21.363Z,28.40
2018-08-24T04:21:59.878Z,28.40
2018-08-24T04:22:37.933Z,28.40
2018-08-24T04:23:15.921Z,28.40
2018-08-24T04:23:53.991Z,28.40
2018-08-24T04:24:32.426Z,28.40
2018-08-24T04:25:12.958Z,28.40
2018-08-24T04:25:50.902Z,28.50
2018-08-24T04:26:29.032Z,28.40
2018-08-24T04:27:06.977Z,28.40
2018-08-24T04:27:44.992Z,28.50
2018-08-24T04:28:22.932Z,28.40
2018-08-24T04:29:02.088Z,28.50
2018-08-24T04:29:41.645Z,28.50
2018-08-24T04:30:19.678Z,28.50
2018-08-24T04:30:57.561Z,28.50
2018-08-24T04:31:35.570Z,28.50
2018-08-24T04:32:13.432Z,28.50
2018-08-24T04:32:51.502Z,28.50
2018-08-24T04:33:29.453Z,28.50
2018-08-24T04:34:07.896Z,28.50
2018-08-24T04:34:45.937Z,28.50
2018-08-24T04:35:23.901Z,28.60
2018-08-24T04:36:01.775Z,28.60
2018-08-24T04:36:39.713Z,28.50
2018-08-24T04:37:17.622Z,28.50
2018-08-24T04:37:56.000Z,28.60
2018-08-24T04:38:33.834Z,28.60
2018-08-24T04:39:14.155Z,28.60
2018-08-24T04:39:52.127Z,28.60
2018-08-24T04:40:30.863Z,28.60
2018-08-24T04:41:09.004Z,28.60
2018-08-24T04:41:47.303Z,28.60
2018-08-24T04:42:30.338Z,28.60
2018-08-24T04:43:08.489Z,28.60
2018-08-24T04:43:46.368Z,28.60
2018-08-24T04:44:24.315Z,28.60
2018-08-24T04:45:02.156Z,28.70
2018-08-24T04:45:40.201Z,28.70
2018-08-24T04:46:18.051Z,28.70
2018-08-24T04:46:56.062Z,28.70
2018-08-24T04:47:34.003Z,28.70
2018-08-24T04:48:11.973Z,28.70
2018-08-24T04:48:49.841Z,28.70
2018-08-24T04:49:27.923Z,28.80
2018-08-24T04:50:05.947Z,28.70
2018-08-24T04:50:44.608Z,28.70
2018-08-24T04:51:23.031Z,28.80
2018-08-24T04:52:00.977Z,28.70
2018-08-24T04:52:38.770Z,28.80
2018-08-24T04:53:16.800Z,28.80
2018-08-24T04:53:54.674Z,28.80
2018-08-24T04:54:32.724Z,28.80
2018-08-24T04:55:12.019Z,28.80
2018-08-24T04:55:49.975Z,28.80
2018-08-24T04:56:27.984Z,28.80
2018-08-24T04:57:05.921Z,28.80
2018-08-24T04:57:44.107Z,28.80
2018-08-24T04:58:22.013Z,28.80
2018-08-24T04:59:00.318Z,28.80
2018-08-24T04:59:38.873Z,28.80
2018-08-24T05:00:17.790Z,28.80
2018-08-24T05:00:55.712Z,28.80
2018-08-24T05:01:33.658Z,28.80
2018-08-24T05:02:12.907Z,28.80
2018-08-24T05:02:50.858Z,28.90
2018-08-24T05:03:30.476Z,28.90
2018-08-24T05:04:09.213Z,28.90
2018-08-24T05:04:47.159Z,28.90
2018-08-24T05:05:25.111Z,28.90
2018-08-24T05:06:03.207Z,28.90
2018-08-24T05:06:41.096Z,28.90
2018-08-24T05:07:18.987Z,28.90
2018-08-24T05:07:57.166Z,28.90
2018-08-24T05:08:35.200Z,28.90
2018-08-24T05:09:13.689Z,28.90
2018-08-24T05:09:51.552Z,28.90
2018-08-24T05:10:29.501Z,28.90
2018-08-24T05:11:07.494Z,28.90
2018-08-24T05:11:45.402Z,29.00
2018-08-24T05:12:23.822Z,28.90
2018-08-24T05:13:02.252Z,29.00
2018-08-24T05:13:40.260Z,28.90
2018-08-24T05:14:18.465Z,28.90
2018-08-24T05:14:56.353Z,29.00
2018-08-24T05:15:34.727Z,29.00
2018-08-24T05:16:12.676Z,29.00
2018-08-24T05:16:50.790Z,29.00
2018-08-24T05:17:28.915Z,29.00
2018-08-24T05:18:06.767Z,29.00
2018-08-24T05:18:44.846Z,29.00
2018-08-24T05:19:22.693Z,29.00
2018-08-24T05:20:00.592Z,29.00
2018-08-24T05:20:38.438Z,29.00
2018-08-24T05:21:17.009Z,29.00
2018-08-24T05:21:55.087Z,29.00
2018-08-24T05:22:33.082Z,29.10
2018-08-24T05:23:10.910Z,29.00
2018-08-24T05:23:48.845Z,29.10
2018-08-24T05:24:26.836Z,29.00
2018-08-24T05:25:04.887Z,29.00
2018-08-24T05:25:42.859Z,29.10
2018-08-24T05:26:22.666Z,29.00
2018-08-24T05:27:00.676Z,29.10
2018-08-24T05:27:38.541Z,29.10
2018-08-24T05:28:16.709Z,29.10
2018-08-24T05:28:54.822Z,29.10
2018-08-24T05:29:32.985Z,29.10
2018-08-24T05:30:10.817Z,29.10
2018-08-24T05:30:48.745Z,29.10
2018-08-24T05:31:27.365Z,29.10
2018-08-24T05:32:05.954Z,29.20
2018-08-24T05:32:43.874Z,29.20
2018-08-24T05:33:21.922Z,29.20
2018-08-24T05:34:00.037Z,29.20
2018-08-24T05:34:38.073Z,29.20
2018-08-24T05:35:16.067Z,29.20
2018-08-24T05:35:59.993Z,29.20
2018-08-24T05:36:37.992Z,29.20
2018-08-24T05:37:15.848Z,29.20
2018-08-24T05:37:53.816Z,29.20
2018-08-24T05:38:31.935Z,29.20
2018-08-24T05:39:11.929Z,29.20
2018-08-24T05:39:49.891Z,29.20
2018-08-24T05:40:27.844Z,29.30
2018-08-24T05:41:05.795Z,29.30
2018-08-24T05:41:43.874Z,29.30
2018-08-24T05:42:21.841Z,29.30
2018-08-24T05:43:00.224Z,29.30
2018-08-24T05:43:38.251Z,29.30
2018-08-24T05:44:17.046Z,29.30
2018-08-24T05:44:54.919Z,29.30
2018-08-24T05:45:32.859Z,29.30
2018-08-24T05:46:10.927Z,29.30
2018-08-24T05:46:49.049Z,29.40
2018-08-24T05:47:27.612Z,29.40
2018-08-24T05:48:05.504Z,29.40
2018-08-24T05:48:43.483Z,29.40
2018-08-24T05:49:21.456Z,29.40
2018-08-24T05:49:59.467Z,29.40
2018-08-24T05:50:38.330Z,29.40
2018-08-24T05:51:16.231Z,29.40
2018-08-24T05:51:54.351Z,29.40
2018-08-24T05:52:32.280Z,29.40
2018-08-24T05:53:10.600Z,29.40
2018-08-24T05:53:48.472Z,29.40
2018-08-24T05:54:26.375Z,29.40
2018-08-24T05:55:04.285Z,29.40
2018-08-24T05:55:42.834Z,29.40
2018-08-24T05:56:21.434Z,29.40
2018-08-24T05:56:59.336Z,29.50
2018-08-24T05:57:37.329Z,29.40
2018-08-24T05:58:15.293Z,29.40
2018-08-24T05:58:53.321Z,29.40
2018-08-24T05:59:31.279Z,29.50
2018-08-24T06:00:09.515Z,29.40
2018-08-24T06:00:48.544Z,29.40
2018-08-24T06:01:26.478Z,29.50
2018-08-24T06:02:04.364Z,29.40
2018-08-24T06:02:42.341Z,29.50
2018-08-24T06:03:20.287Z,29.50
2018-08-24T06:03:58.261Z,29.50
2018-08-24T06:04:37.777Z,29.50
2018-08-24T06:05:15.966Z,29.50
2018-08-24T06:05:58.083Z,29.50
2018-08-24T06:06:36.016Z,29.50
2018-08-24T06:07:13.918Z,29.50
2018-08-24T06:07:51.820Z,29.50
2018-08-24T06:08:29.741Z,29.50
2018-08-24T06:09:14.501Z,29.50
2018-08-24T06:09:52.372Z,29.50
2018-08-24T06:10:30.476Z,29.50
2018-08-24T06:11:08.535Z,29.50
2018-08-24T06:11:46.513Z,29.50
2018-08-24T06:12:24.628Z,29.60
2018-08-24T06:13:02.579Z,29.50
2018-08-24T06:13:41.218Z,29.60
2018-08-24T06:14:19.311Z,29.60
2018-08-24T06:14:57.267Z,29.60
2018-08-24T06:15:35.236Z,29.60
2018-08-24T06:16:13.242Z,29.60
2018-08-24T06:16:55.384Z,29.60
2018-08-24T06:17:37.999Z,29.60
2018-08-24T06:22:16.324Z,29.60
2018-08-24T06:22:54.507Z,29.60
2018-08-24T06:23:32.476Z,29.60
2018-08-24T06:24:10.506Z,29.60
2018-08-24T06:24:48.457Z,29.60
2018-08-24T06:25:26.521Z,29.60
2018-08-24T06:26:04.975Z,29.60
2018-08-24T06:26:44.314Z,29.60
2018-08-24T06:27:22.201Z,29.60
2018-08-24T06:28:00.092Z,29.60
2018-08-24T06:28:38.111Z,29.60
2018-08-24T06:29:16.105Z,29.60
2018-08-24T06:29:53.941Z,29.60
2018-08-24T06:30:31.920Z,29.60
2018-08-24T06:31:11.494Z,29.60
2018-08-24T06:31:49.502Z,29.60
2018-08-24T06:32:27.353Z,29.60
2018-08-24T06:33:05.199Z,29.70
2018-08-24T06:33:43.185Z,29.60
2018-08-24T06:34:22.145Z,29.60
2018-08-24T06:35:01.087Z,29.70
2018-08-24T06:35:39.391Z,29.70
2018-08-24T06:36:17.513Z,29.60
2018-08-24T06:36:55.572Z,29.70
2018-08-24T06:37:33.516Z,29.70
2018-08-24T06:38:11.938Z,29.70
2018-08-24T06:38:51.131Z,29.70
2018-08-24T06:39:29.628Z,29.70
2018-08-24T06:40:07.663Z,29.70
2018-08-24T06:40:45.631Z,29.70
2018-08-24T06:41:23.575Z,29.70
2018-08-24T06:42:01.588Z,29.70
2018-08-24T06:42:39.694Z,29.70
2018-08-24T06:43:17.540Z,29.70
2018-08-24T06:43:55.821Z,29.70
2018-08-24T06:44:33.817Z,29.70
2018-08-24T06:45:11.918Z,29.70
2018-08-24T06:45:49.861Z,29.70
2018-08-24T06:46:27.778Z,29.80
2018-08-24T06:47:05.898Z,29.70
2018-08-24T06:47:43.786Z,29.70
2018-08-24T06:48:21.972Z,29.70
2018-08-24T06:48:59.958Z,29.70
2018-08-24T06:49:37.921Z,29.70
2018-08-24T06:50:16.220Z,29.70
2018-08-24T06:50:54.249Z,29.70
2018-08-24T06:51:32.211Z,29.70
2018-08-24T06:52:10.510Z,29.70
2018-08-24T06:52:50.124Z,29.80
2018-08-24T06:53:28.117Z,29.80
2018-08-24T06:54:06.087Z,29.80
2018-08-24T06:54:44.098Z,29.80
2018-08-24T06:55:22.171Z,29.80
2018-08-24T06:56:00.066Z,29.80
2018-08-24T06:56:38.318Z,29.80
2018-08-24T06:57:17.707Z,29.80
2018-08-24T06:57:55.678Z,29.80
2018-08-24T06:58:33.656Z,29.80
2018-08-24T06:59:11.660Z,29.80
2018-08-24T06:59:49.502Z,29.80
2018-08-24T07:00:31.380Z,29.80
2018-08-24T07:01:09.837Z,29.80
2018-08-24T07:01:48.399Z,29.80
2018-08-24T07:02:26.311Z,29.80
2018-08-24T07:03:04.734Z,29.80
2018-08-24T07:03:42.789Z,29.80
2018-08-24T07:04:20.739Z,29.80
2018-08-24T07:04:58.818Z,29.80
2018-08-24T07:05:37.060Z,29.80
2018-08-24T07:06:15.058Z,29.80
2018-08-24T07:06:53.029Z,29.80
2018-08-24T07:07:31.117Z,29.90
2018-08-24T07:08:09.143Z,29.90
2018-08-24T07:08:47.047Z,29.90
2018-08-24T07:09:24.942Z,29.90
2018-08-24T07:10:03.188Z,29.90
2018-08-24T07:10:42.066Z,29.90
2018-08-24T07:11:20.368Z,29.90
2018-08-24T07:11:58.281Z,29.90
2018-08-24T07:12:36.137Z,29.90
2018-08-24T07:13:14.214Z,29.90
2018-08-24T07:13:52.688Z,29.90
2018-08-24T07:14:31.356Z,29.90
2018-08-24T07:15:09.324Z,29.90
2018-08-24T07:15:47.317Z,29.90
2018-08-24T07:16:25.257Z,29.90
2018-08-24T07:17:03.780Z,29.90
2018-08-24T07:17:45.954Z,29.90
2018-08-24T07:18:24.535Z,29.90
2018-08-24T07:19:03.884Z,29.90
2018-08-24T07:19:41.806Z,29.90
2018-08-24T07:20:19.844Z,29.90
2018-08-24T07:20:58.589Z,29.90
2018-08-24T07:21:36.464Z,29.90
2018-08-24T07:22:14.380Z,29.90
2018-08-24T07:22:53.027Z,29.90
2018-08-24T07:23:31.021Z,30.00
2018-08-24T07:24:08.961Z,29.90
2018-08-24T07:24:46.991Z,29.90
2018-08-24T07:25:24.884Z,30.00
2018-08-24T07:26:02.742Z,29.90
2018-08-24T07:26:40.573Z,30.00
2018-08-24T07:27:18.838Z,30.00
2018-08-24T07:27:56.862Z,30.00
2018-08-24T07:28:34.898Z,30.00
2018-08-24T07:29:12.942Z,30.00
2018-08-24T07:29:50.843Z,30.00
2018-08-24T07:30:28.802Z,30.00
2018-08-24T07:31:07.358Z,30.00
2018-08-24T07:31:45.632Z,30.00
2018-08-24T07:32:23.577Z,30.00
2018-08-24T07:33:01.533Z,30.00
2018-08-24T07:33:39.536Z,30.00
2018-08-24T07:34:17.521Z,30.00
2018-08-24T07:34:55.393Z,30.00
2018-08-24T07:35:33.522Z,30.00
2018-08-24T07:36:11.753Z,30.00
2018-08-24T07:36:50.737Z,30.00
2018-08-24T07:37:28.735Z,30.00
2018-08-24T07:38:07.754Z,30.00
2018-08-24T07:38:45.628Z,30.00
2018-08-24T07:39:23.630Z,30.00
2018-08-24T07:40:03.485Z,30.00
2018-08-24T07:40:42.728Z,30.00
2018-08-24T07:41:20.671Z,30.00
2018-08-24T07:41:58.569Z,30.00
2018-08-24T07:42:36.490Z,30.00
2018-08-24T07:43:14.357Z,30.00
2018-08-24T07:43:52.327Z,30.00
2018-08-24T07:44:31.071Z,30.10
2018-08-24T07:45:09.574Z,30.10
2018-08-24T07:45:47.425Z,30.00
2018-08-24T07:46:25.321Z,30.10
2018-08-24T07:47:03.234Z,30.10
2018-08-24T07:47:41.296Z,30.10
2018-08-24T07:48:19.212Z,30.10
2018-08-24T07:48:58.781Z,30.10
2018-08-24T07:49:36.765Z,30.10
2018-08-24T07:50:15.710Z,30.10
2018-08-24T07:50:53.767Z,30.10
2018-08-24T07:51:31.825Z,30.10
2018-08-24T07:52:09.898Z,30.10
2018-08-24T07:52:47.805Z,30.10
2018-08-24T07:53:25.750Z,30.10
2018-08-24T07:54:03.839Z,30.10
2018-08-24T07:54:41.742Z,30.10
2018-08-24T07:55:19.752Z,30.10
2018-08-24T07:55:57.753Z,30.10
2018-08-24T07:56:35.728Z,30.10
2018-08-24T07:57:14.364Z,30.10
2018-08-24T07:57:52.808Z,30.10
2018-08-24T07:58:31.033Z,30.10
2018-08-24T07:59:09.006Z,30.10
2018-08-24T07:59:46.908Z,30.10
2018-08-24T08:00:24.777Z,30.10
2018-08-24T08:01:02.689Z,30.10
2018-08-24T08:01:41.185Z,30.10
2018-08-24T08:02:19.354Z,30.10
2018-08-24T08:02:57.451Z,30.10
2018-08-24T08:03:35.405Z,30.10
2018-08-24T08:04:13.764Z,30.20
2018-08-24T08:04:51.871Z,30.20
2018-08-24T08:05:29.766Z,30.20
2018-08-24T08:06:08.968Z,30.20
2018-08-24T08:06:47.100Z,30.20
2018-08-24T08:07:25.010Z,30.20
2018-08-24T08:08:02.900Z,30.20
2018-08-24T08:08:40.866Z,30.20
2018-08-24T08:09:18.794Z,30.20
2018-08-24T08:09:56.926Z,30.20
2018-08-24T08:10:41.316Z,30.20
2018-08-24T08:11:19.098Z,30.20
2018-08-24T08:11:57.122Z,30.20
2018-08-24T08:12:35.132Z,30.20
2018-08-24T08:13:13.985Z,30.20
2018-08-24T08:13:51.836Z,30.20
2018-08-24T08:14:29.747Z,30.20
2018-08-24T08:15:08.936Z,30.20
2018-08-24T08:15:46.910Z,30.20
2018-08-24T08:16:24.736Z,30.20
2018-08-24T08:17:03.883Z,30.30
2018-08-24T08:17:42.544Z,30.20
2018-08-24T08:18:20.668Z,30.20
2018-08-24T08:18:58.753Z,30.30
2018-08-24T08:19:37.301Z,30.30
2018-08-24T08:20:15.284Z,30.30